createdAt,value
2023-07-09T00:00:55.480Z,94.22
2023-07-09T00:03:21.941Z,94.21
2023-07-09T00:05:50.224Z,94.70
2023-07-09T00:08:28.518Z,95.58
2023-07-09T00:10:56.485Z,95.37
2023-07-09T00:13:24.923Z,94.92
2023-07-09T00:15:52.136Z,94.62
2023-07-09T00:18:19.002Z,94.25
2023-07-09T00:20:45.458Z,94.52
2023-07-09T00:23:14.471Z,94.79
2023-07-09T00:25:45.329Z,94.31
2023-07-09T00:28:16.430Z,95.37
2023-07-09T00:30:42.867Z,95.52
2023-07-09T00:33:15.353Z,95.25
2023-07-09T00:35:43.876Z,95.32
2023-07-09T00:38:15.580Z,95.08
2023-07-09T00:41:06.856Z,93.94
2023-07-09T00:43:37.420Z,94.05
2023-07-09T00:46:27.554Z,94.26
2023-07-09T00:49:01.761Z,94.63
2023-07-09T00:51:30.383Z,94.38
2023-07-09T00:54:01.265Z,95.04
2023-07-09T00:56:30.676Z,95.63
2023-07-09T00:59:02.424Z,96.26
2023-07-09T01:01:29.076Z,96.43
2023-07-09T01:04:00.142Z,97.37
2023-07-09T01:06:42.411Z,96.35
2023-07-09T01:09:09.229Z,96.68
2023-07-09T01:11:35.918Z,97.18
2023-07-09T01:14:05.351Z,97.51
2023-07-09T01:16:35.072Z,97.67
2023-07-09T01:19:01.779Z,97.74
2023-07-09T01:21:28.366Z,97.25
2023-07-09T01:23:55.804Z,97.01
2023-07-09T01:26:27.093Z,96.93
2023-07-09T01:28:55.654Z,97.18
2023-07-09T01:31:23.196Z,97.29
2023-07-09T01:33:49.886Z,97.44
2023-07-09T01:36:24.352Z,97.29
2023-07-09T01:38:54.491Z,97.28
2023-07-09T01:41:20.980Z,97.33
2023-07-09T01:43:47.504Z,97.39
2023-07-09T01:46:15.297Z,97.42
2023-07-09T01:48:42.334Z,97.73
2023-07-09T01:51:11.634Z,97.66
2023-07-09T01:53:39.921Z,97.85
2023-07-09T01:56:08.599Z,98.17
2023-07-09T01:58:35.725Z,97.50
2023-07-09T02:01:02.536Z,98.30
2023-07-09T02:03:29.269Z,98.39
2023-07-09T02:05:56.275Z,98.42
2023-07-09T02:08:22.749Z,97.92
2023-07-09T02:10:49.936Z,97.27
2023-07-09T02:13:16.811Z,97.76
2023-07-09T02:15:44.399Z,97.97
2023-07-09T02:18:11.900Z,97.06
2023-07-09T02:20:38.528Z,98.15
2023-07-09T02:23:05.203Z,98.38
2023-07-09T02:25:31.701Z,98.77
2023-07-09T02:27:58.144Z,99.75
2023-07-09T02:30:24.756Z,99.74
2023-07-09T02:32:51.330Z,99.15
2023-07-09T02:35:17.961Z,99.87
2023-07-09T02:37:44.475Z,99.88
2023-07-09T02:40:12.832Z,100.00
2023-07-09T02:42:39.368Z,99.99
2023-07-09T02:45:06.270Z,100.00
2023-07-09T02:47:32.942Z,100.00
2023-07-09T02:49:59.515Z,100.00
2023-07-09T02:52:25.962Z,100.00
2023-07-09T02:54:52.473Z,99.02
2023-07-09T02:57:19.065Z,99.39
2023-07-09T02:59:45.495Z,99.06
2023-07-09T03:02:12.528Z,99.05
2023-07-09T03:04:39.142Z,99.75
2023-07-09T03:07:05.996Z,99.23
2023-07-09T03:09:32.689Z,99.59
2023-07-09T03:11:59.171Z,100.00
2023-07-09T03:14:25.821Z,100.00
2023-07-09T03:16:52.600Z,100.00
2023-07-09T03:19:19.199Z,100.00
2023-07-09T03:21:45.681Z,100.00
2023-07-09T03:24:12.095Z,100.00
2023-07-09T03:26:38.571Z,100.00
2023-07-09T03:29:05.045Z,100.00
2023-07-09T03:31:31.558Z,100.00
2023-07-09T03:33:58.064Z,100.00
2023-07-09T03:36:24.586Z,100.00
2023-07-09T03:38:51.006Z,100.00
2023-07-09T03:41:17.561Z,100.00
2023-07-09T03:43:44.608Z,100.00
2023-07-09T03:46:11.115Z,99.83
2023-07-09T03:48:38.072Z,99.92
2023-07-09T03:51:04.803Z,99.50
2023-07-09T03:53:31.313Z,99.57
2023-07-09T03:55:59.302Z,99.48
2023-07-09T03:58:26.583Z,99.84
2023-07-09T04:00:55.068Z,100.00
2023-07-09T04:03:22.004Z,100.00
2023-07-09T04:05:49.857Z,100.00
2023-07-09T04:08:16.557Z,100.00
2023-07-09T04:10:42.992Z,100.00
2023-07-09T04:13:09.479Z,100.00
2023-07-09T04:15:36.073Z,100.00
2023-07-09T04:18:02.702Z,100.00
2023-07-09T04:20:29.244Z,99.27
2023-07-09T04:22:55.724Z,98.06
2023-07-09T04:25:22.971Z,96.90
2023-07-09T04:27:51.504Z,96.58
2023-07-09T04:30:17.968Z,96.19
2023-07-09T04:32:45.071Z,96.19
2023-07-09T04:35:13.913Z,95.80
2023-07-09T04:37:41.296Z,95.27
2023-07-09T04:40:11.409Z,94.69
2023-07-09T04:42:42.371Z,94.51
2023-07-09T04:45:10.960Z,94.21
2023-07-09T04:47:38.328Z,94.12
2023-07-09T04:50:06.657Z,94.13
2023-07-09T04:52:33.279Z,94.22
2023-07-09T04:54:59.804Z,93.33
2023-07-09T04:57:28.081Z,92.17
2023-07-09T04:59:54.721Z,91.38
2023-07-09T05:02:21.288Z,89.85
2023-07-09T05:04:47.738Z,88.72
2023-07-09T05:07:14.173Z,89.38
2023-07-09T05:09:40.670Z,90.88
2023-07-09T05:12:08.082Z,92.32
2023-07-09T05:14:34.506Z,91.07
2023-07-09T05:17:00.910Z,89.55
2023-07-09T05:19:27.470Z,88.14
2023-07-09T05:21:53.893Z,87.25
2023-07-09T05:24:20.294Z,87.13
2023-07-09T05:26:46.758Z,87.17
2023-07-09T05:29:13.248Z,87.26
2023-07-09T05:31:39.786Z,86.70
2023-07-09T05:34:06.335Z,85.10
2023-07-09T05:36:32.890Z,82.27
2023-07-09T05:38:59.547Z,77.40
2023-07-09T05:41:26.234Z,74.89
2023-07-09T05:43:53.456Z,72.91
2023-07-09T05:46:20.718Z,72.21
2023-07-09T05:48:47.711Z,68.64
2023-07-09T05:51:14.356Z,63.01
2023-07-09T05:53:41.480Z,59.60
2023-07-09T05:56:08.439Z,57.72
2023-07-09T05:58:34.863Z,57.87
2023-07-09T06:01:01.470Z,57.54
2023-07-09T06:03:30.462Z,57.75
2023-07-09T06:06:01.419Z,58.06
2023-07-09T06:08:28.631Z,58.17
2023-07-09T06:11:01.739Z,59.10
2023-07-09T06:13:31.818Z,60.57
2023-07-09T06:15:59.503Z,59.04
2023-07-09T06:18:30.248Z,60.04
2023-07-09T06:21:02.201Z,59.61
2023-07-09T06:23:29.935Z,59.65
2023-07-09T06:25:56.484Z,60.01
2023-07-09T06:28:25.647Z,60.89
2023-07-09T06:30:52.355Z,59.41
2023-07-09T06:33:20.343Z,59.63
2023-07-09T06:35:49.210Z,58.02
2023-07-09T06:38:16.135Z,57.51
2023-07-09T06:40:42.841Z,56.80
2023-07-09T06:43:09.339Z,56.72
2023-07-09T06:45:35.818Z,55.72
2023-07-09T06:48:02.648Z,56.28
2023-07-09T06:50:29.495Z,55.93
2023-07-09T06:52:56.420Z,55.43
2023-07-09T06:55:23.045Z,54.98
2023-07-09T06:57:49.489Z,53.60
2023-07-09T07:00:16.441Z,53.82
2023-07-09T07:02:43.138Z,52.32
2023-07-09T07:05:09.892Z,51.84
2023-07-09T07:07:36.362Z,52.76
2023-07-09T07:10:04.671Z,51.89
2023-07-09T07:12:43.026Z,52.80
2023-07-09T07:15:10.042Z,54.56
2023-07-09T07:17:36.551Z,54.03
2023-07-09T07:20:03.084Z,53.53
2023-07-09T07:22:29.492Z,51.05
2023-07-09T07:24:56.001Z,52.24
2023-07-09T07:27:22.625Z,51.80
2023-07-09T07:29:49.156Z,52.20
2023-07-09T07:32:15.604Z,53.18
2023-07-09T07:34:42.225Z,51.80
2023-07-09T07:37:08.633Z,52.14
2023-07-09T07:39:35.116Z,52.69
2023-07-09T07:42:01.613Z,50.83
2023-07-09T07:44:28.025Z,48.94
2023-07-09T07:46:54.514Z,49.18
2023-07-09T07:49:21.048Z,47.48
2023-07-09T07:51:48.263Z,47.01
2023-07-09T07:54:15.728Z,47.14
2023-07-09T07:56:42.340Z,48.71
2023-07-09T07:59:08.891Z,52.18
2023-07-09T08:01:36.729Z,52.52
2023-07-09T08:04:04.005Z,51.37
2023-07-09T08:06:32.317Z,54.71
2023-07-09T08:08:59.552Z,53.87
2023-07-09T08:11:29.009Z,55.40
2023-07-09T08:13:55.446Z,55.25
2023-07-09T08:16:21.994Z,55.44
2023-07-09T08:18:48.559Z,55.20
2023-07-09T08:21:15.146Z,54.98
2023-07-09T08:23:41.656Z,54.43
2023-07-09T08:26:08.214Z,56.29
2023-07-09T08:28:36.073Z,55.20
2023-07-09T08:31:03.451Z,55.55
2023-07-09T08:33:31.285Z,54.66
2023-07-09T08:35:57.872Z,55.53
2023-07-09T08:38:25.096Z,55.44
2023-07-09T08:40:59.428Z,55.09
2023-07-09T08:43:39.921Z,54.05
2023-07-09T08:46:34.585Z,54.22
2023-07-09T08:49:03.166Z,50.66
2023-07-09T08:51:41.978Z,52.81
2023-07-09T08:54:18.018Z,53.76
2023-07-09T08:56:45.418Z,53.07
2023-07-09T08:59:18.319Z,53.72
2023-07-09T09:01:58.963Z,54.70
2023-07-09T09:04:29.493Z,52.69
2023-07-09T09:07:42.453Z,52.03
2023-07-09T09:10:17.112Z,52.64
2023-07-09T09:12:57.763Z,50.27
2023-07-09T09:15:25.344Z,50.90
2023-07-09T09:17:54.462Z,52.86
2023-07-09T09:20:23.448Z,52.47
2023-07-09T09:23:00.746Z,49.32
2023-07-09T09:25:36.335Z,52.54
2023-07-09T09:28:03.763Z,48.73
2023-07-09T09:30:31.866Z,51.29
2023-07-09T09:33:18.490Z,53.66
2023-07-09T09:35:46.357Z,50.83
2023-07-09T09:38:14.492Z,51.25
2023-07-09T09:40:41.330Z,50.53
2023-07-09T09:43:15.609Z,50.01
2023-07-09T09:45:43.995Z,51.74
2023-07-09T09:48:15.492Z,48.92
2023-07-09T09:50:42.486Z,49.52
2023-07-09T09:53:10.617Z,55.87
2023-07-09T09:55:40.138Z,57.97
2023-07-09T09:58:15.205Z,58.38
2023-07-09T10:00:41.994Z,57.68
2023-07-09T10:03:08.625Z,57.83
2023-07-09T10:05:57.549Z,60.40
2023-07-09T10:08:42.473Z,58.19
2023-07-09T10:11:18.678Z,60.46
2023-07-09T10:13:46.650Z,61.38
2023-07-09T10:16:37.189Z,59.61
2023-07-09T10:19:18.913Z,57.44
2023-07-09T10:22:22.752Z,59.31
2023-07-09T10:25:02.427Z,60.04
2023-07-09T10:28:05.560Z,60.40
2023-07-09T10:30:44.830Z,60.98
2023-07-09T10:33:15.030Z,59.62
2023-07-09T10:36:18.645Z,58.67
2023-07-09T10:38:57.436Z,58.55
2023-07-09T10:41:27.989Z,58.20
2023-07-09T10:44:09.966Z,59.75
2023-07-09T10:46:39.906Z,57.83
2023-07-09T10:49:12.403Z,60.49
2023-07-09T10:51:43.070Z,60.90
2023-07-09T10:54:32.618Z,57.48
2023-07-09T10:57:14.667Z,61.98
2023-07-09T10:59:42.976Z,55.99
2023-07-09T11:02:32.363Z,58.60
2023-07-09T11:05:05.687Z,56.84
2023-07-09T11:07:37.258Z,59.26
2023-07-09T11:10:35.392Z,56.94
2023-07-09T11:13:01.792Z,56.74
2023-07-09T11:15:36.873Z,56.04
2023-07-09T11:18:07.237Z,56.79
2023-07-09T11:20:43.310Z,57.71
2023-07-09T11:23:52.143Z,57.83
2023-07-09T11:26:32.303Z,59.06
2023-07-09T11:29:07.998Z,58.44
2023-07-09T11:31:40.133Z,59.74
2023-07-09T11:34:13.727Z,57.53
2023-07-09T11:36:55.354Z,56.96
2023-07-09T11:39:23.377Z,56.38
2023-07-09T11:41:50.162Z,58.70
2023-07-09T11:44:21.229Z,59.25
2023-07-09T11:47:13.612Z,60.27
2023-07-09T11:49:53.168Z,57.31
2023-07-09T11:52:28.902Z,59.39
2023-07-09T11:54:55.463Z,57.67
2023-07-09T11:57:21.878Z,56.94
2023-07-09T11:59:48.329Z,55.45
2023-07-09T12:02:20.940Z,55.80
2023-07-09T12:04:51.971Z,55.22
2023-07-09T12:07:20.243Z,54.15
2023-07-09T12:09:52.577Z,54.12
2023-07-09T12:12:27.485Z,51.48
2023-07-09T12:14:54.226Z,52.47
2023-07-09T12:17:25.182Z,53.90
2023-07-09T12:19:52.992Z,51.50
2023-07-09T12:22:23.425Z,51.67
2023-07-09T12:24:51.562Z,51.78
2023-07-09T12:27:29.389Z,50.06
2023-07-09T12:29:58.510Z,49.52
2023-07-09T12:32:27.793Z,48.51
2023-07-09T12:34:58.199Z,48.95
2023-07-09T12:37:29.530Z,51.57
2023-07-09T12:39:56.085Z,54.26
2023-07-09T12:42:35.049Z,53.55
2023-07-09T12:45:01.701Z,53.37
2023-07-09T12:47:28.631Z,52.05
2023-07-09T12:50:03.824Z,52.38
2023-07-09T12:52:30.460Z,52.39
2023-07-09T12:55:03.953Z,52.73
2023-07-09T12:57:31.744Z,50.50
2023-07-09T12:59:59.758Z,48.88
2023-07-09T13:02:28.673Z,50.89
2023-07-09T13:05:05.473Z,49.72
2023-07-09T13:07:36.014Z,49.26
2023-07-09T13:10:26.858Z,49.90
2023-07-09T13:12:56.906Z,47.48
2023-07-09T13:15:31.635Z,48.91
2023-07-09T13:18:01.309Z,48.63
2023-07-09T13:20:28.709Z,45.98
2023-07-09T13:22:56.184Z,45.85
2023-07-09T13:25:36.711Z,45.80
2023-07-09T13:28:29.491Z,47.54
2023-07-09T13:31:01.982Z,48.72
2023-07-09T13:33:28.926Z,47.33
2023-07-09T13:35:55.528Z,46.01
2023-07-09T13:38:23.974Z,47.27
2023-07-09T13:40:54.896Z,48.57
2023-07-09T13:43:29.128Z,46.21
2023-07-09T13:45:57.301Z,45.46
2023-07-09T13:48:25.578Z,45.88
2023-07-09T13:50:54.550Z,46.90
2023-07-09T13:53:24.749Z,45.86
2023-07-09T13:55:51.403Z,46.64
2023-07-09T13:58:20.688Z,46.92
2023-07-09T14:00:48.860Z,48.95
2023-07-09T14:03:19.802Z,49.35
2023-07-09T14:05:49.561Z,49.82
2023-07-09T14:08:17.488Z,50.96
2023-07-09T14:10:45.733Z,50.84
2023-07-09T14:13:17.560Z,52.14
2023-07-09T14:15:44.387Z,53.32
2023-07-09T14:18:14.508Z,54.16
2023-07-09T14:20:41.078Z,54.49
2023-07-09T14:23:16.747Z,54.82
2023-07-09T14:25:53.002Z,55.60
2023-07-09T14:28:21.708Z,56.56
2023-07-09T14:30:51.792Z,57.48
2023-07-09T14:33:20.374Z,58.26
2023-07-09T14:35:48.353Z,59.11
2023-07-09T14:38:26.312Z,59.64
2023-07-09T14:40:59.823Z,61.15
2023-07-09T14:43:26.268Z,61.80
2023-07-09T14:45:53.007Z,62.64
2023-07-09T14:48:21.746Z,63.02
2023-07-09T14:50:48.976Z,63.05
2023-07-09T14:53:28.565Z,64.22
2023-07-09T14:55:55.747Z,68.01
2023-07-09T14:58:24.503Z,71.23
2023-07-09T15:00:51.778Z,76.52
2023-07-09T15:03:26.783Z,78.43
2023-07-09T15:05:55.457Z,81.73
2023-07-09T15:08:25.003Z,80.73
2023-07-09T15:10:53.525Z,81.26
2023-07-09T15:13:31.309Z,82.86
2023-07-09T15:15:58.418Z,83.29
2023-07-09T15:18:25.102Z,85.67
2023-07-09T15:20:57.393Z,85.37
2023-07-09T15:23:24.181Z,83.98
2023-07-09T15:25:51.180Z,85.45
2023-07-09T15:28:18.486Z,84.46
2023-07-09T15:30:45.312Z,84.06
2023-07-09T15:33:16.865Z,82.61
2023-07-09T15:35:45.805Z,84.01
2023-07-09T15:38:18.568Z,82.43
2023-07-09T15:40:48.906Z,83.03
2023-07-09T15:43:16.648Z,85.80
2023-07-09T15:45:45.672Z,85.67
2023-07-09T15:48:23.057Z,84.28
2023-07-09T15:50:49.809Z,86.12
2023-07-09T15:53:16.377Z,87.02
2023-07-09T15:55:42.837Z,87.26
2023-07-09T15:58:16.962Z,87.94
2023-07-09T16:00:45.983Z,88.35
2023-07-09T16:03:21.270Z,88.23
2023-07-09T16:05:48.951Z,88.04
2023-07-09T16:08:15.623Z,88.54
2023-07-09T16:10:42.161Z,87.66
2023-07-09T16:13:26.956Z,87.26
2023-07-09T16:15:53.624Z,89.32
2023-07-09T16:18:20.345Z,91.14
2023-07-09T16:20:48.078Z,92.24
2023-07-09T16:23:20.685Z,93.16
2023-07-09T16:25:49.066Z,93.34
2023-07-09T16:28:19.293Z,94.26
2023-07-09T16:30:47.894Z,94.51
2023-07-09T16:33:18.255Z,95.90
2023-07-09T16:35:44.984Z,96.35
2023-07-09T16:38:14.673Z,96.58
2023-07-09T16:40:41.352Z,95.61
2023-07-09T16:43:22.202Z,95.31
2023-07-09T16:45:49.512Z,95.18
2023-07-09T16:48:21.980Z,93.02
2023-07-09T16:50:50.890Z,91.63
2023-07-09T16:53:19.482Z,92.72
2023-07-09T16:55:47.244Z,90.21
2023-07-09T16:58:33.475Z,88.58
2023-07-09T17:01:01.142Z,85.93
2023-07-09T17:03:29.101Z,86.65
2023-07-09T17:05:55.806Z,85.04
2023-07-09T17:08:22.304Z,85.28
2023-07-09T17:10:50.867Z,86.85
2023-07-09T17:13:21.982Z,87.43
2023-07-09T17:15:48.563Z,86.54
2023-07-09T17:18:27.227Z,86.75
2023-07-09T17:20:56.147Z,86.33
2023-07-09T17:23:27.372Z,86.75
2023-07-09T17:25:55.072Z,83.43
2023-07-09T17:28:29.121Z,82.17
2023-07-09T17:30:57.234Z,83.26
2023-07-09T17:33:24.741Z,84.21
2023-07-09T17:35:53.176Z,84.71
2023-07-09T17:38:24.618Z,84.41
2023-07-09T17:40:51.236Z,84.71
2023-07-09T17:43:20.679Z,85.63
2023-07-09T17:45:48.909Z,85.61
2023-07-09T17:48:18.691Z,86.57
2023-07-09T17:50:46.993Z,86.27
2023-07-09T17:53:17.800Z,86.91
2023-07-09T17:55:45.264Z,87.80
2023-07-09T17:58:22.334Z,87.15
2023-07-09T18:00:51.318Z,87.27
2023-07-09T18:03:17.898Z,87.34
2023-07-09T18:05:45.028Z,88.71
2023-07-09T18:08:13.226Z,88.89
2023-07-09T18:10:42.433Z,89.39
2023-07-09T18:13:13.583Z,89.04
2023-07-09T18:15:41.589Z,87.61
2023-07-09T18:18:10.033Z,87.24
2023-07-09T18:20:36.650Z,87.25
2023-07-09T18:23:03.548Z,87.94
2023-07-09T18:25:31.171Z,89.25
2023-07-09T18:28:02.579Z,89.52
2023-07-09T18:30:32.873Z,89.98
2023-07-09T18:33:03.618Z,91.65
2023-07-09T18:35:33.342Z,93.09
2023-07-09T18:38:05.800Z,95.02
2023-07-09T18:40:38.147Z,95.01
2023-07-09T18:43:31.530Z,95.62
2023-07-09T18:45:58.953Z,95.88
2023-07-09T18:48:26.301Z,96.41
2023-07-09T18:50:54.519Z,97.32
2023-07-09T18:53:23.433Z,97.88
2023-07-09T18:55:50.960Z,97.53
2023-07-09T18:58:29.262Z,97.70
2023-07-09T19:00:58.201Z,97.35
2023-07-09T19:03:32.136Z,98.28
2023-07-09T19:05:59.741Z,98.09
2023-07-09T19:08:28.312Z,97.66
2023-07-09T19:10:55.996Z,97.68
2023-07-09T19:13:22.875Z,97.25
2023-07-09T19:15:51.330Z,98.09
2023-07-09T19:18:25.050Z,98.27
2023-07-09T19:20:52.404Z,99.22
2023-07-09T19:23:19.616Z,99.38
2023-07-09T19:25:47.127Z,99.75
2023-07-09T19:28:14.757Z,100.00
2023-07-09T19:30:43.112Z,100.00
2023-07-09T19:33:17.700Z,100.00
2023-07-09T19:35:44.322Z,100.00
2023-07-09T19:38:10.980Z,100.00
2023-07-09T19:40:40.094Z,100.00
2023-07-09T19:43:08.431Z,100.00
2023-07-09T19:45:40.269Z,100.00
2023-07-09T19:48:15.764Z,100.00
2023-07-09T19:50:48.052Z,100.00
2023-07-09T19:53:20.305Z,100.00
2023-07-09T19:55:46.926Z,100.00
2023-07-09T19:58:13.452Z,100.00
2023-07-09T20:00:40.228Z,100.00
2023-07-09T20:03:22.846Z,100.00
2023-07-09T20:05:49.473Z,100.00
2023-07-09T20:08:19.938Z,100.00
2023-07-09T20:10:47.255Z,100.00
2023-07-09T20:13:15.911Z,100.00
2023-07-09T20:15:43.234Z,100.00
2023-07-09T20:18:17.620Z,100.00
2023-07-09T20:21:05.530Z,100.00
2023-07-09T20:23:32.861Z,100.00
2023-07-09T20:26:00.172Z,100.00
2023-07-09T20:28:28.831Z,100.00
2023-07-09T20:30:56.518Z,100.00
2023-07-09T20:33:24.502Z,100.00
2023-07-09T20:35:51.669Z,100.00
2023-07-09T20:38:21.200Z,100.00
2023-07-09T20:40:48.424Z,100.00
2023-07-09T20:43:20.235Z,100.00
2023-07-09T20:45:47.315Z,100.00
2023-07-09T20:48:13.844Z,100.00
2023-07-09T20:50:42.759Z,100.00
2023-07-09T20:53:15.929Z,100.00
2023-07-09T20:55:43.805Z,100.00
2023-07-09T20:58:17.317Z,100.00
2023-07-09T21:00:44.698Z,100.00
2023-07-09T21:03:17.613Z,100.00
2023-07-09T21:05:44.742Z,100.00
2023-07-09T21:08:17.308Z,100.00
2023-07-09T21:10:45.315Z,100.00
2023-07-09T21:13:15.014Z,100.00
2023-07-09T21:15:41.701Z,100.00
2023-07-09T21:18:15.604Z,100.00
2023-07-09T21:20:42.409Z,100.00
2023-07-09T21:23:15.837Z,100.00
2023-07-09T21:25:42.508Z,100.00
2023-07-09T21:28:08.997Z,100.00
2023-07-09T21:30:35.501Z,100.00
2023-07-09T21:33:02.291Z,100.00
2023-07-09T21:35:28.952Z,100.00
2023-07-09T21:37:58.028Z,100.00
2023-07-09T21:40:32.181Z,100.00
2023-07-09T21:43:00.875Z,100.00
2023-07-09T21:45:32.300Z,100.00
2023-07-09T21:48:05.333Z,100.00
2023-07-09T21:50:32.814Z,100.00
2023-07-09T21:52:59.485Z,100.00
2023-07-09T21:55:28.781Z,100.00
2023-07-09T21:57:56.492Z,100.00
2023-07-09T22:00:28.261Z,100.00
2023-07-09T22:02:55.845Z,100.00
2023-07-09T22:05:28.091Z,100.00
2023-07-09T22:07:56.666Z,100.00
2023-07-09T22:10:52.029Z,100.00
2023-07-09T22:13:19.790Z,100.00
2023-07-09T22:15:46.503Z,100.00
2023-07-09T22:18:19.027Z,100.00
2023-07-09T22:20:46.015Z,100.00
2023-07-09T22:23:23.364Z,100.00
2023-07-09T22:25:50.469Z,100.00
2023-07-09T22:28:18.567Z,100.00
2023-07-09T22:30:46.041Z,100.00
2023-07-09T22:33:13.261Z,100.00
2023-07-09T22:35:39.848Z,100.00
2023-07-09T22:38:20.040Z,100.00
2023-07-09T22:40:48.140Z,100.00
2023-07-09T22:43:14.879Z,100.00
2023-07-09T22:45:44.573Z,100.00
2023-07-09T22:48:11.988Z,100.00
2023-07-09T22:50:39.904Z,100.00
2023-07-09T22:53:12.544Z,100.00
2023-07-09T22:55:41.182Z,100.00
2023-07-09T22:58:09.917Z,100.00
2023-07-09T23:00:47.858Z,100.00
2023-07-09T23:03:18.160Z,100.00
2023-07-09T23:05:46.197Z,100.00
2023-07-09T23:08:20.310Z,100.00
2023-07-09T23:10:47.235Z,100.00
2023-07-09T23:13:13.899Z,100.00
2023-07-09T23:15:40.446Z,100.00
2023-07-09T23:18:17.310Z,100.00
2023-07-09T23:20:44.125Z,100.00
2023-07-09T23:23:11.371Z,100.00
2023-07-09T23:25:38.121Z,100.00
2023-07-09T23:28:05.961Z,100.00
2023-07-09T23:30:34.696Z,100.00
2023-07-09T23:33:18.887Z,100.00
2023-07-09T23:35:45.393Z,100.00
2023-07-09T23:38:11.868Z,100.00
2023-07-09T23:40:38.295Z,100.00
2023-07-09T23:43:04.853Z,100.00
2023-07-09T23:45:34.578Z,100.00
2023-07-09T23:48:04.731Z,100.00
2023-07-09T23:50:31.213Z,100.00
2023-07-09T23:52:57.651Z,100.00
2023-07-09T23:55:24.554Z,100.00
2023-07-09T23:57:57.830Z,100.00
